Weather at Burke Lakefront Airport

Public forecast

Using degrees Fahrenheit for public forecast. Weather courtesy of forecast.io.

Current aviation weather report (METAR) for Burke Lakefront Airport

Retrieved 2020/09/29 19:53 UTC (47 minutes ago):

KBKL 291953Z 27007KT 10SM BKN050 17/10 A2981 RMK AO2 SLP095 T01670100

Closest aviation forecast (TAF) to Burke Lakefront Airport

Forecast is more than 12 hours old.

Closest forecast is Cuyahoga County Airport, 9.3 nm (17.2 km) ENE. Retrieved 2016/07/24 12:26 UTC (4 years ago):

TAF KCGF 241126Z 2412/2512 18008KT P6SM BKN060 OVC200 FM241500 25010KT P6SM SCT035 BKN200 FM242000 27008KT P6SM VCTS BKN040CB OVC060 FM242300 21005KT P6SM SCT120 BKN200